Time;durP1;ratioP1;P1;durP2;ratioP2;P2;SDS_P1;SDS_P2;PMS_P1;PMS_P2;Temp;Humidity;BMP_temperature;BMP_pressure;BME280_temperature;BME280_humidity;BME280_pressure;Samples;Min_cycle;Max_cycle;Signal;HPM_P1;HPM_P2
2023/07/16 00:01:05;;;;;;;5.50;4.80;;;;;;;22.72;52.32;100275.89;103712;279;38649;-71
2023/07/16 00:03:59;;;;;;;5.30;4.80;;;;;;;22.71;52.22;100272.80;103704;279;38717;-72
2023/07/16 00:06:34;;;;;;;5.50;5.00;;;;;;;22.68;52.45;100275.83;103699;279;38389;-75
2023/07/16 00:09:08;;;;;;;5.30;4.80;;;;;;;22.65;52.45;100270.04;103715;279;38292;-76
2023/07/16 00:11:43;;;;;;;5.30;4.50;;;;;;;22.62;52.62;100271.24;103690;279;39550;-72
2023/07/16 00:14:17;;;;;;;5.40;4.50;;;;;;;22.58;52.78;100266.21;103666;279;39325;-73
2023/07/16 00:16:53;;;;;;;5.80;4.80;;;;;;;22.55;52.70;100262.25;103648;279;38269;-73
2023/07/16 00:19:27;;;;;;;9.00;5.30;;;;;;;22.52;52.88;100266.28;103701;279;39253;-74
2023/07/16 00:22:03;;;;;;;6.10;5.20;;;;;;;22.47;52.98;100265.33;103587;279;174593;-74
2023/07/16 00:24:38;;;;;;;5.90;5.40;;;;;;;22.42;53.18;100261.86;103712;279;38499;-73
2023/07/16 00:27:15;;;;;;;5.50;4.80;;;;;;;22.37;53.16;100262.77;103724;279;38707;-75
2023/07/16 00:29:49;;;;;;;7.80;5.50;;;;;;;22.34;53.33;100261.80;103104;279;893395;-73
2023/07/16 00:32:24;;;;;;;5.80;5.00;;;;;;;22.31;53.40;100263.48;103749;279;39885;-72
2023/07/16 00:34:58;;;;;;;5.80;5.20;;;;;;;22.29;53.57;100263.90;103762;279;39433;-72
2023/07/16 00:37:34;;;;;;;5.40;4.80;;;;;;;22.26;53.66;100265.38;103712;279;39689;-72
2023/07/16 00:40:11;;;;;;;6.50;5.20;;;;;;;22.22;53.70;100265.95;103751;279;39595;-73
2023/07/16 00:42:45;;;;;;;6.10;5.30;;;;;;;22.17;53.87;100265.66;103764;279;38300;-73
2023/07/16 00:45:19;;;;;;;5.60;5.00;;;;;;;22.13;54.19;100263.15;103772;279;38402;-73
2023/07/16 00:47:54;;;;;;;5.50;5.00;;;;;;;22.09;54.17;100261.49;103735;268;39399;-73
2023/07/16 00:50:28;;;;;;;6.00;5.00;;;;;;;22.06;54.34;100262.31;103747;279;38286;-71
2023/07/16 00:53:02;;;;;;;5.60;5.10;;;;;;;22.03;54.50;100263.44;103678;279;38641;-73
2023/07/16 00:55:38;;;;;;;6.10;5.20;;;;;;;22.00;54.80;100263.73;103687;279;38742;-72
2023/07/16 00:58:13;;;;;;;5.60;4.90;;;;;;;21.99;55.01;100264.52;103746;279;38590;-74
2023/07/16 01:00:48;;;;;;;6.00;4.90;;;;;;;21.97;54.96;100259.92;103703;279;38625;-73
2023/07/16 01:03:22;;;;;;;6.40;5.60;;;;;;;21.96;55.24;100255.79;103632;280;39921;-74
2023/07/16 01:06:02;;;;;;;8.20;5.70;;;;;;;21.95;55.24;100254.46;103769;279;38475;-73
2023/07/16 01:08:39;;;;;;;6.30;5.70;;;;;;;21.94;55.37;100245.85;103656;279;38228;-73
2023/07/16 01:11:14;;;;;;;6.80;5.60;;;;;;;21.93;55.48;100244.11;103755;279;38755;-72
2023/07/16 01:13:49;;;;;;;5.80;5.20;;;;;;;21.92;55.65;100241.16;103729;279;39405;-72
2023/07/16 01:16:26;;;;;;;6.10;5.60;;;;;;;21.92;55.80;100242.26;103777;279;39978;-73
2023/07/16 01:19:03;;;;;;;6.20;5.60;;;;;;;21.90;55.88;100239.03;103701;279;39429;-71
2023/07/16 01:21:42;;;;;;;6.40;5.60;;;;;;;21.88;56.29;100234.95;103755;279;38353;-74
2023/07/16 01:24:42;;;;;;;5.50;5.00;;;;;;;21.87;56.32;100230.94;103725;279;38233;-75
2023/07/16 01:27:45;;;;;;;9.00;5.40;;;;;;;21.85;56.53;100227.73;103537;279;38656;-75
2023/07/16 01:30:19;;;;;;;6.80;5.70;;;;;;;21.83;56.56;100224.16;103760;279;39522;-74
2023/07/16 01:32:54;;;;;;;6.10;5.30;;;;;;;21.82;56.80;100227.50;103666;279;38758;-75
2023/07/16 01:35:28;;;;;;;6.00;5.50;;;;;;;21.81;56.78;100229.35;103717;279;38507;-72
2023/07/16 01:38:02;;;;;;;6.40;5.80;;;;;;;21.81;56.90;100225.48;103643;280;38838;-72
2023/07/16 01:40:37;;;;;;;7.00;5.40;;;;;;;21.80;57.06;100224.99;103733;279;38933;-73
2023/07/16 01:43:12;;;;;;;6.80;6.20;;;;;;;21.78;57.09;100224.28;103726;279;38829;-74
2023/07/16 01:45:47;;;;;;;6.30;5.80;;;;;;;21.76;57.18;100220.58;103740;279;38926;-73
2023/07/16 01:48:31;;;;;;;6.10;5.50;;;;;;;21.74;57.34;100221.46;103739;279;38352;-73
2023/07/16 01:51:06;;;;;;;6.70;5.70;;;;;;;21.72;57.44;100219.54;103776;279;38451;-74
2023/07/16 01:53:40;;;;;;;6.20;5.70;;;;;;;21.70;57.55;100218.77;103739;279;39396;-73
2023/07/16 01:56:16;;;;;;;5.80;5.30;;;;;;;21.68;57.73;100216.80;103726;279;38400;-73
2023/07/16 01:58:52;;;;;;;6.20;5.60;;;;;;;21.67;57.80;100219.08;103696;279;39506;-73
2023/07/16 02:01:26;;;;;;;5.90;5.30;;;;;;;21.67;58.01;100214.45;103717;279;171973;-73
2023/07/16 02:04:00;;;;;;;8.00;6.00;;;;;;;21.67;58.12;100214.08;103809;279;38247;-72
2023/07/16 02:06:35;;;;;;;6.10;5.50;;;;;;;21.68;58.14;100212.58;103740;279;38726;-73
2023/07/16 02:09:09;;;;;;;7.40;5.50;;;;;;;21.68;58.12;100213.95;103733;279;38505;-74
2023/07/16 02:11:43;;;;;;;6.00;5.50;;;;;;;21.68;58.18;100211.48;103751;279;38521;-73
2023/07/16 02:14:17;;;;;;;6.50;5.90;;;;;;;21.67;58.22;100205.76;103551;280;174612;-73
2023/07/16 02:16:52;;;;;;;5.90;5.40;;;;;;;21.64;58.27;100209.11;103693;279;38736;-75
2023/07/16 02:19:26;;;;;;;6.60;5.80;;;;;;;21.62;58.44;100207.73;103703;279;38987;-75
2023/07/16 02:22:01;;;;;;;6.30;5.70;;;;;;;21.59;58.66;100209.42;103736;279;38381;-73
2023/07/16 02:24:36;;;;;;;7.00;5.90;;;;;;;21.57;58.93;100203.39;103725;279;38438;-74
2023/07/16 02:27:12;;;;;;;6.20;5.70;;;;;;;21.55;59.10;100198.44;103662;279;38582;-73
2023/07/16 02:29:47;;;;;;;6.40;5.80;;;;;;;21.53;59.04;100201.10;103628;279;38232;-72
2023/07/16 02:32:21;;;;;;;6.20;5.70;;;;;;;21.51;59.36;100201.63;103656;279;39677;-74
2023/07/16 02:34:55;;;;;;;6.20;5.20;;;;;;;21.50;59.56;100197.80;103686;279;38714;-74
2023/07/16 02:37:29;;;;;;;5.90;5.40;;;;;;;21.52;59.67;100199.60;103662;279;39056;-71
2023/07/16 02:40:09;;;;;;;6.70;6.00;;;;;;;21.53;59.78;100201.08;103668;279;38782;-73
2023/07/16 02:42:44;;;;;;;6.60;5.80;;;;;;;21.54;59.71;100197.30;103703;279;38511;-72
2023/07/16 02:45:18;;;;;;;5.90;5.40;;;;;;;21.55;59.91;100195.75;103735;279;38453;-75
2023/07/16 02:47:52;;;;;;;6.80;6.20;;;;;;;21.55;59.94;100196.43;103745;279;38401;-73
2023/07/16 02:50:26;;;;;;;6.90;6.20;;;;;;;21.55;60.01;100197.18;103723;279;38295;-73
2023/07/16 02:53:01;;;;;;;7.60;6.40;;;;;;;21.54;60.02;100198.48;103749;279;39454;-74
2023/07/16 02:55:34;;;;;;;7.90;6.60;;;;;;;21.53;60.09;100197.51;103746;279;39647;-72
2023/07/16 02:58:09;;;;;;;6.90;6.10;;;;;;;21.52;60.21;100202.91;103666;279;39627;-71
2023/07/16 03:00:43;;;;;;;8.80;6.90;;;;;;;21.51;60.55;100198.41;103714;279;39428;-74
2023/07/16 03:03:17;;;;;;;7.30;5.60;;;;;;;21.51;60.68;100198.89;103687;279;38256;-73
2023/07/16 03:05:51;;;;;;;6.60;6.00;;;;;;;21.53;60.78;100197.52;103642;280;39570;-75
2023/07/16 03:08:29;;;;;;;8.40;6.30;;;;;;;21.55;60.83;100200.35;103677;279;38496;-74
2023/07/16 03:11:04;;;;;;;7.10;6.10;;;;;;;21.58;60.96;100198.70;103560;279;174626;-73
2023/07/16 03:13:38;;;;;;;7.00;6.30;;;;;;;21.58;61.06;100199.16;103652;279;38394;-73
2023/07/16 03:16:13;;;;;;;6.80;6.20;;;;;;;21.60;61.10;100201.38;103658;279;38270;-72
2023/07/16 03:18:50;;;;;;;6.90;6.30;;;;;;;21.61;61.12;100203.36;103692;279;38425;-74
2023/07/16 03:21:25;;;;;;;9.50;6.20;;;;;;;21.64;61.28;100208.10;103720;279;39644;-73
2023/07/16 03:24:00;;;;;;;9.20;6.50;;;;;;;21.66;61.18;100211.98;103675;279;38649;-72
2023/07/16 03:26:34;;;;;;;8.10;5.60;;;;;;;21.68;61.34;100214.02;103572;279;172519;-71
2023/07/16 03:29:08;;;;;;;6.40;5.80;;;;;;;21.71;61.48;100215.33;103711;279;38523;-72
2023/07/16 03:31:44;;;;;;;6.90;6.30;;;;;;;21.76;61.46;100216.33;103705;280;38396;-71
2023/07/16 03:34:18;;;;;;;6.90;6.30;;;;;;;21.81;61.44;100223.47;103704;279;39422;-73
2023/07/16 03:36:53;;;;;;;8.40;6.30;;;;;;;21.86;61.43;100224.59;103708;279;39517;-73
2023/07/16 03:39:29;;;;;;;7.80;6.50;;;;;;;21.93;61.49;100220.67;103721;279;39588;-73
2023/07/16 03:42:06;;;;;;;6.90;6.20;;;;;;;21.99;61.37;100222.96;103762;279;38384;-73
2023/07/16 03:44:40;;;;;;;6.70;6.10;;;;;;;22.05;61.58;100225.64;103704;279;39419;-76
2023/07/16 03:47:14;;;;;;;6.70;6.00;;;;;;;22.14;61.40;100220.95;103686;279;39186;-74
2023/07/16 03:49:48;;;;;;;7.20;6.50;;;;;;;22.56;61.70;100225.77;103732;279;38403;-73
2023/07/16 03:52:24;;;;;;;6.50;5.90;;;;;;;23.50;61.90;100221.19;103692;279;39377;-73
2023/07/16 03:54:58;;;;;;;6.80;6.20;;;;;;;24.61;60.63;100218.40;103643;279;39202;-73
2023/07/16 03:57:32;;;;;;;6.60;6.00;;;;;;;25.70;58.12;100218.82;103636;279;39423;-73
2023/07/16 04:00:09;;;;;;;6.70;5.70;;;;;;;26.73;55.65;100220.60;103694;279;38786;-75
2023/07/16 04:02:44;;;;;;;6.70;5.70;;;;;;;27.68;52.16;100219.19;103673;280;38389;-73
2023/07/16 04:05:18;;;;;;;6.90;5.60;;;;;;;28.47;49.81;100215.80;103773;268;38249;-74
2023/07/16 04:07:52;;;;;;;5.80;5.30;;;;;;;29.20;48.37;100215.80;103672;279;39384;-73
2023/07/16 04:10:27;;;;;;;6.60;5.50;;;;;;;29.96;46.18;100212.91;103706;279;38386;-73
2023/07/16 04:13:01;;;;;;;6.20;5.60;;;;;;;30.58;44.59;100211.36;103674;279;38393;-72
2023/07/16 04:15:36;;;;;;;6.10;5.40;;;;;;;30.92;42.95;100211.84;103736;279;38362;-73
2023/07/16 04:18:10;;;;;;;6.20;5.40;;;;;;;31.24;41.89;100212.81;103732;279;38410;-72
2023/07/16 04:20:47;;;;;;;5.80;5.10;;;;;;;31.74;40.86;100209.25;103779;279;38302;-75
2023/07/16 04:23:21;;;;;;;5.90;5.40;;;;;;;32.04;39.60;100207.29;103827;279;38974;-76
2023/07/16 04:25:57;;;;;;;6.00;5.50;;;;;;;31.80;39.25;100208.45;103718;279;38512;-74
2023/07/16 04:28:32;;;;;;;5.70;5.30;;;;;;;31.18;39.56;100209.57;103726;279;39163;-74
2023/07/16 04:31:06;;;;;;;5.90;5.40;;;;;;;30.49;40.05;100212.30;103713;279;38331;-72
2023/07/16 04:33:41;;;;;;;5.90;5.00;;;;;;;29.91;40.78;100213.88;103653;279;38223;-72
2023/07/16 04:36:15;;;;;;;6.20;5.60;;;;;;;29.41;41.48;100212.73;103731;279;41867;-74
2023/07/16 04:38:49;;;;;;;6.70;6.10;;;;;;;28.97;42.26;100215.53;103664;279;39833;-74
2023/07/16 04:41:23;;;;;;;6.20;5.60;;;;;;;28.58;43.09;100217.52;103667;279;38788;-73
2023/07/16 04:43:57;;;;;;;6.10;5.50;;;;;;;28.28;43.66;100216.91;103693;279;38295;-73
2023/07/16 04:46:31;;;;;;;6.90;5.50;;;;;;;28.01;44.39;100217.50;103753;279;38400;-72
2023/07/16 04:49:05;;;;;;;7.00;5.90;;;;;;;27.77;45.12;100222.02;103705;279;38272;-73
2023/07/16 04:51:39;;;;;;;5.80;5.30;;;;;;;27.58;45.65;100215.34;103729;279;38279;-72
2023/07/16 04:54:13;;;;;;;7.80;5.80;;;;;;;27.42;46.15;100221.29;103637;279;38133;-71
2023/07/16 04:56:47;;;;;;;6.60;6.00;;;;;;;27.24;46.52;100217.73;103751;279;38239;-72
2023/07/16 04:59:21;;;;;;;6.20;5.70;;;;;;;27.10;47.25;100221.18;103621;279;174440;-71
2023/07/16 05:01:56;;;;;;;6.30;5.70;;;;;;;27.22;47.66;100221.02;103760;279;38375;-74
2023/07/16 05:04:31;;;;;;;7.90;5.10;;;;;;;27.92;48.02;100222.73;103736;279;38798;-74
2023/07/16 05:07:05;;;;;;;6.20;5.60;;;;;;;29.00;46.85;100222.49;103769;279;39590;-74
2023/07/16 05:09:39;;;;;;;8.40;5.80;;;;;;;30.09;45.25;100228.06;103760;279;38234;-71
2023/07/16 05:12:14;;;;;;;6.10;5.40;;;;;;;31.17;43.42;100221.23;103732;279;38506;-75
2023/07/16 05:14:49;;;;;;;7.80;5.10;;;;;;;32.22;41.37;100218.39;103721;279;38256;-73
2023/07/16 05:17:23;;;;;;;6.00;5.40;;;;;;;33.23;39.50;100216.25;103422;279;479699;-76
2023/07/16 05:19:57;;;;;;;7.40;4.90;;;;;;;34.07;37.27;100217.04;103794;279;39569;-73
2023/07/16 05:22:31;;;;;;;8.60;5.50;;;;;;;34.67;36.07;100216.00;103744;279;38243;-74
2023/07/16 05:25:07;;;;;;;5.60;5.10;;;;;;;35.18;34.77;100219.39;103695;279;38293;-73
2023/07/16 05:27:41;;;;;;;5.50;5.00;;;;;;;35.70;33.95;100214.92;103707;279;38884;-74
2023/07/16 05:30:16;;;;;;;8.10;5.10;;;;;;;36.18;33.37;100211.42;103762;279;38340;-74
2023/07/16 05:32:50;;;;;;;6.10;5.30;;;;;;;36.72;32.49;100213.02;103722;279;38843;-74
2023/07/16 05:35:24;;;;;;;6.30;4.60;;;;;;;37.30;31.25;100206.88;103774;279;38507;-72
2023/07/16 05:37:58;;;;;;;5.30;4.90;;;;;;;37.63;30.69;100203.31;103732;279;38987;-72
2023/07/16 05:40:31;;;;;;;6.10;5.10;;;;;;;38.08;29.92;100207.66;103637;280;38464;-74
2023/07/16 05:43:05;;;;;;;5.60;4.70;;;;;;;38.40;29.19;100210.33;103742;279;38246;-73
2023/07/16 05:45:41;;;;;;;6.00;5.40;;;;;;;38.63;28.58;100210.29;103781;279;39975;-73
2023/07/16 05:48:14;;;;;;;6.10;4.90;;;;;;;38.92;28.44;100210.42;103774;279;38496;-75
2023/07/16 05:50:51;;;;;;;5.30;4.80;;;;;;;39.27;27.82;100211.33;103775;279;38665;-75
2023/07/16 05:53:25;;;;;;;6.50;4.70;;;;;;;39.24;27.61;100212.77;103768;279;38837;-74
2023/07/16 05:55:59;;;;;;;5.20;4.80;;;;;;;39.34;27.15;100220.94;103792;279;38280;-73
2023/07/16 05:58:34;;;;;;;4.90;4.40;;;;;;;39.51;26.95;100229.69;103690;279;173859;-72
2023/07/16 06:01:09;;;;;;;5.40;4.60;;;;;;;39.71;26.85;100229.14;103755;279;39449;-72
2023/07/16 06:03:43;;;;;;;5.20;4.70;;;;;;;39.97;26.40;100228.52;103731;279;39650;-73
2023/07/16 06:06:18;;;;;;;4.80;4.40;;;;;;;40.34;26.05;100232.30;103690;279;39481;-74
2023/07/16 06:08:53;;;;;;;4.70;4.30;;;;;;;40.66;25.59;100234.90;103708;279;38231;-74
2023/07/16 06:11:27;;;;;;;4.90;4.50;;;;;;;40.68;25.50;100233.05;103742;279;38533;-74
2023/07/16 06:14:02;;;;;;;4.70;4.20;;;;;;;40.70;25.45;100230.39;103678;279;39776;-74
2023/07/16 06:16:37;;;;;;;5.60;5.00;;;;;;;40.89;25.10;100228.64;103704;279;39601;-76
2023/07/16 06:19:11;;;;;;;5.10;4.40;;;;;;;41.21;24.82;100225.27;103589;279;187361;-75
2023/07/16 06:21:45;;;;;;;4.70;4.30;;;;;;;41.59;24.49;100227.39;103734;279;38481;-75
2023/07/16 06:24:19;;;;;;;4.70;4.30;;;;;;;41.78;23.97;100228.17;103717;279;38614;-76
2023/07/16 06:26:54;;;;;;;5.20;4.10;;;;;;;41.90;24.07;100224.70;103721;279;38246;-74
2023/07/16 06:29:28;;;;;;;4.20;3.90;;;;;;;42.16;23.78;100228.54;103691;279;39208;-75
2023/07/16 06:32:03;;;;;;;5.80;4.40;;;;;;;42.47;23.47;100227.20;103650;268;38448;-74
2023/07/16 06:34:36;;;;;;;5.10;4.60;;;;;;;42.69;23.10;100234.23;103701;279;38477;-74
2023/07/16 06:37:11;;;;;;;5.30;4.40;;;;;;;42.91;22.92;100238.10;103693;279;39117;-74
2023/07/16 06:39:45;;;;;;;4.90;4.40;;;;;;;43.13;22.55;100244.60;103712;279;38769;-74
2023/07/16 06:42:19;;;;;;;4.60;4.20;;;;;;;43.23;22.26;100247.84;103762;279;38814;-74
2023/07/16 06:44:54;;;;;;;4.70;4.30;;;;;;;43.30;22.22;100248.55;103570;279;186981;-72
2023/07/16 06:47:28;;;;;;;4.80;4.20;;;;;;;43.49;22.04;100254.42;103706;279;39604;-74
2023/07/16 06:50:02;;;;;;;4.50;4.10;;;;;;;43.73;21.77;100256.23;103684;279;38937;-73
2023/07/16 06:52:38;;;;;;;5.40;4.80;;;;;;;43.81;21.43;100259.48;103663;279;38260;-73
2023/07/16 06:55:15;;;;;;;5.40;4.10;;;;;;;43.75;21.82;100264.05;103060;279;881678;-74
2023/07/16 06:57:49;;;;;;;5.50;4.70;;;;;;;43.81;21.86;100264.92;103675;279;39914;-75
2023/07/16 07:00:23;;;;;;;5.60;4.80;;;;;;;43.84;21.84;100266.20;103665;279;38880;-74
2023/07/16 07:03:00;;;;;;;4.60;4.20;;;;;;;43.98;21.70;100268.73;103051;279;883565;-74
2023/07/16 07:05:35;;;;;;;5.30;4.50;;;;;;;44.14;21.36;100270.52;103659;279;39405;-74
2023/07/16 07:08:17;;;;;;;5.30;4.80;;;;;;;44.12;21.12;100267.79;103719;279;38506;-74
2023/07/16 07:10:53;;;;;;;5.00;4.60;;;;;;;44.10;20.87;100265.41;103717;279;38666;-73
2023/07/16 07:13:31;;;;;;;4.80;4.20;;;;;;;43.90;21.26;100264.29;103669;279;38662;-73
2023/07/16 07:16:05;;;;;;;4.90;4.30;;;;;;;43.83;21.68;100264.65;103718;279;38862;-72
2023/07/16 07:18:40;;;;;;;4.40;4.00;;;;;;;43.83;21.35;100265.86;103660;279;38853;-74
2023/07/16 07:21:14;;;;;;;4.90;4.30;;;;;;;43.86;21.27;100265.76;103603;280;39480;-73
2023/07/16 07:23:48;;;;;;;4.30;3.90;;;;;;;43.94;21.38;100271.33;103655;280;38772;-72
2023/07/16 07:26:23;;;;;;;4.70;4.40;;;;;;;44.19;21.38;100276.97;103666;280;39058;-72
2023/07/16 07:29:07;;;;;;;4.70;4.30;;;;;;;44.39;21.09;100270.42;103708;280;38376;-74
2023/07/16 07:31:42;;;;;;;4.60;4.20;;;;;;;44.41;21.00;100271.52;103463;280;38867;-74
2023/07/16 07:34:16;;;;;;;4.80;4.10;;;;;;;44.42;21.07;100266.92;103674;280;38485;-75
2023/07/16 07:36:56;;;;;;;9.70;4.50;;;;;;;44.48;21.00;100256.52;103640;280;38309;-73
2023/07/16 07:39:38;;;;;;;4.30;3.90;;;;;;;44.58;21.04;100243.36;103631;280;38269;-72
2023/07/16 07:42:15;;;;;;;4.50;4.10;;;;;;;44.62;20.79;100235.77;103542;280;39545;-75
2023/07/16 07:44:49;;;;;;;;;;;;;;;44.76;20.60;100237.84;103708;280;38277;-74
2023/07/16 07:47:23;;;;;;;4.30;3.90;;;;;;;44.90;20.54;100236.45;103638;280;38720;-75
2023/07/16 07:49:58;;;;;;;4.20;3.90;;;;;;;45.12;20.58;100237.83;103650;280;38523;-76
2023/07/16 07:52:33;;;;;;;4.50;4.10;;;;;;;45.06;20.38;100236.39;103680;280;38254;-75
2023/07/16 07:55:09;;;;;;;4.20;3.90;;;;;;;45.12;20.10;100234.23;103550;280;39017;-74
2023/07/16 07:57:44;;;;;;;4.10;3.70;;;;;;;45.23;20.37;100231.03;103663;280;39451;-76
2023/07/16 08:00:19;;;;;;;4.10;3.60;;;;;;;45.43;20.36;100228.19;103583;280;173251;-74
2023/07/16 08:02:54;;;;;;;4.10;3.80;;;;;;;45.60;20.07;100223.30;103689;280;39448;-74
2023/07/16 08:05:28;;;;;;;4.00;3.50;;;;;;;45.68;19.91;100226.50;103665;280;38250;-72
2023/07/16 08:08:03;;;;;;;6.20;3.90;;;;;;;45.80;19.86;100226.83;103673;280;38252;-74
2023/07/16 08:10:37;;;;;;;4.40;3.90;;;;;;;46.10;19.47;100227.54;103702;280;39466;-76
2023/07/16 08:13:12;;;;;;;5.80;3.40;;;;;;;46.16;19.24;100216.89;103497;280;38363;-74
2023/07/16 08:15:47;;;;;;;3.90;3.60;;;;;;;46.24;19.19;100211.92;103708;280;38411;-75
2023/07/16 08:18:24;;;;;;;3.90;3.50;;;;;;;46.38;18.73;100208.17;103615;280;38240;-76
2023/07/16 08:20:59;;;;;;;4.50;3.70;;;;;;;46.51;19.19;100209.30;103671;279;38249;-72
2023/07/16 08:23:36;;;;;;;4.60;3.60;;;;;;;46.74;18.55;100206.38;103689;280;39885;-73
2023/07/16 08:26:12;;;;;;;5.50;3.70;;;;;;;46.86;18.21;100195.83;103669;280;38327;-73
2023/07/16 08:28:48;;;;;;;54.80;7.80;;;;;;;47.01;18.84;100200.07;103658;276;39233;-74
2023/07/16 08:31:23;;;;;;;5.50;3.60;;;;;;;47.29;18.29;100197.55;103671;280;39495;-74
2023/07/16 08:34:00;;;;;;;4.00;3.50;;;;;;;47.49;17.78;100202.38;103622;280;38283;-72
2023/07/16 08:36:35;;;;;;;3.10;2.90;;;;;;;47.58;17.54;100201.79;103669;280;38268;-74
2023/07/16 08:39:09;;;;;;;3.60;3.30;;;;;;;47.61;17.47;100201.04;103651;280;38776;-74
2023/07/16 08:41:43;;;;;;;4.20;3.60;;;;;;;47.64;17.72;100200.47;103653;280;39333;-73
2023/07/16 08:44:17;;;;;;;3.60;3.10;;;;;;;47.82;17.38;100195.43;103662;280;38392;-74
2023/07/16 08:46:52;;;;;;;3.50;2.80;;;;;;;48.03;16.63;100202.88;103677;279;38416;-74
2023/07/16 08:49:26;;;;;;;3.70;3.40;;;;;;;48.03;16.36;100194.98;103640;280;39490;-74
2023/07/16 08:52:01;;;;;;;3.50;3.00;;;;;;;47.90;16.68;100195.97;103565;280;39057;-74
2023/07/16 08:54:38;;;;;;;4.00;3.40;;;;;;;47.87;17.01;100194.61;103671;280;38441;-74
2023/07/16 08:57:12;;;;;;;3.30;3.10;;;;;;;48.04;16.67;100202.40;103506;280;38780;-72
2023/07/16 08:59:47;;;;;;;5.90;3.20;;;;;;;48.22;16.60;100197.34;103636;280;38614;-74
2023/07/16 09:02:21;;;;;;;3.40;3.10;;;;;;;48.33;16.03;100196.73;103641;280;39069;-73
2023/07/16 09:04:56;;;;;;;3.50;3.10;;;;;;;48.30;16.16;100199.06;103665;280;38758;-73
2023/07/16 09:07:30;;;;;;;3.90;3.50;;;;;;;48.21;16.27;100195.13;103625;280;38256;-72
2023/07/16 09:10:04;;;;;;;3.80;3.50;;;;;;;48.22;16.51;100199.33;103694;280;39848;-80
2023/07/16 09:12:38;;;;;;;5.00;3.40;;;;;;;48.16;16.13;100200.84;103647;280;38410;-76
2023/07/16 09:15:17;;;;;;;4.20;3.40;;;;;;;47.89;16.23;100193.23;103666;280;38980;-74
2023/07/16 09:17:54;;;;;;;4.00;3.60;;;;;;;47.73;16.48;100192.75;103686;280;39525;-74
2023/07/16 09:20:30;;;;;;;5.10;3.80;;;;;;;47.53;16.62;100184.60;103678;280;39586;-74
2023/07/16 09:23:04;;;;;;;4.10;3.70;;;;;;;47.23;17.18;100187.14;103677;280;38449;-73
2023/07/16 09:25:39;;;;;;;3.90;3.60;;;;;;;46.86;17.21;100183.76;103669;280;39435;-73
2023/07/16 09:28:14;;;;;;;4.30;3.70;;;;;;;46.32;17.67;100183.96;103668;280;38299;-72
2023/07/16 09:30:48;;;;;;;4.10;3.80;;;;;;;45.69;17.78;100178.57;103572;280;170723;-71
2023/07/16 09:33:26;;;;;;;4.10;3.70;;;;;;;44.88;18.37;100176.60;103682;280;38568;-71
2023/07/16 09:36:02;;;;;;;4.00;3.60;;;;;;;44.24;19.12;100175.55;103687;280;38849;-72
2023/07/16 09:38:36;;;;;;;5.20;3.60;;;;;;;43.74;19.40;100168.91;103676;279;38451;-73
2023/07/16 09:41:12;;;;;;;4.90;3.70;;;;;;;43.35;20.00;100171.08;103660;280;39105;-72
2023/07/16 09:43:46;;;;;;;5.80;4.00;;;;;;;43.07;20.50;100175.82;103640;280;38582;-75
2023/07/16 09:46:20;;;;;;;5.50;3.70;;;;;;;42.83;21.05;100172.15;103672;280;38439;-73
2023/07/16 09:48:57;;;;;;;6.40;3.80;;;;;;;42.68;20.95;100171.16;103637;280;38804;-72
2023/07/16 09:51:32;;;;;;;4.10;3.80;;;;;;;42.61;20.87;100171.37;103685;279;39075;-72
2023/07/16 09:54:07;;;;;;;3.80;3.60;;;;;;;42.31;20.29;100169.02;103667;280;38497;-73
2023/07/16 09:56:45;;;;;;;4.10;3.60;;;;;;;41.95;20.73;100160.02;103678;280;38726;-73
2023/07/16 09:59:23;;;;;;;5.00;3.70;;;;;;;41.76;20.96;100167.87;103641;280;38330;-73
2023/07/16 10:01:58;;;;;;;;;;;;;;;41.55;21.05;100164.91;103681;280;39976;-72
2023/07/16 10:04:41;;;;;;;4.40;4.00;;;;;;;41.41;21.59;100168.14;103662;280;38365;-72
2023/07/16 10:07:24;;;;;;;4.60;4.20;;;;;;;41.12;21.57;100164.54;103620;280;38675;-75
2023/07/16 10:10:00;;;;;;;5.90;4.30;;;;;;;40.93;22.14;100163.52;103687;280;38954;-75
2023/07/16 10:12:34;;;;;;;4.90;4.40;;;;;;;40.58;22.68;100166.63;103717;280;39536;-75
2023/07/16 10:15:09;;;;;;;6.10;4.80;;;;;;;40.18;23.05;100163.38;103694;268;38276;-75
2023/07/16 10:17:52;;;;;;;6.90;5.00;;;;;;;40.06;23.90;100161.70;103720;280;39966;-74
2023/07/16 10:20:34;;;;;;;7.70;4.70;;;;;;;39.80;24.13;100163.30;103683;280;38464;-75
2023/07/16 10:23:16;;;;;;;5.50;4.20;;;;;;;39.53;24.78;100166.08;103646;280;38282;-75
2023/07/16 10:26:06;;;;;;;8.00;5.10;;;;;;;39.34;25.14;100163.03;103675;280;39551;-77
2023/07/16 10:28:40;;;;;;;5.10;4.70;;;;;;;39.14;25.42;100167.55;103680;280;38709;-77
2023/07/16 10:31:24;;;;;;;8.10;4.60;;;;;;;38.86;25.89;100165.69;103678;280;38277;-76
2023/07/16 10:34:05;;;;;;;5.90;4.50;;;;;;;38.56;26.13;100167.34;103743;279;38734;-76
2023/07/16 10:36:43;;;;;;;10.80;5.00;;;;;;;38.36;26.40;100168.04;103712;279;38281;-75
2023/07/16 10:39:17;;;;;;;5.10;4.70;;;;;;;38.22;26.87;100165.29;101419;280;3026957;-73
2023/07/16 10:41:52;;;;;;;5.30;4.80;;;;;;;38.11;27.11;100165.08;103692;280;38363;-75
2023/07/16 10:44:29;;;;;;;5.10;4.70;;;;;;;37.99;27.81;100163.88;103691;280;38265;-74
2023/07/16 10:47:05;;;;;;;6.40;5.30;;;;;;;37.93;28.01;100161.02;103669;279;38309;-73
2023/07/16 10:49:39;;;;;;;5.90;5.20;;;;;;;37.91;28.41;100165.75;103665;280;38246;-74
2023/07/16 10:52:14;;;;;;;8.10;4.90;;;;;;;37.91;28.53;100166.40;103670;280;38279;-75
2023/07/16 10:54:49;;;;;;;6.20;5.60;;;;;;;37.94;28.62;100167.50;103672;280;38594;-75
2023/07/16 10:57:24;;;;;;;6.60;5.40;;;;;;;38.01;28.34;100172.61;103658;280;38260;-74
2023/07/16 11:00:00;;;;;;;6.90;5.10;;;;;;;38.07;28.51;100169.27;103629;268;38797;-77
2023/07/16 11:02:34;;;;;;;5.70;5.10;;;;;;;38.17;29.05;100172.26;103522;281;39456;-75
2023/07/16 11:05:12;;;;;;;5.80;5.10;;;;;;;38.31;28.78;100171.22;103677;280;38468;-77
2023/07/16 11:07:50;;;;;;;6.10;4.80;;;;;;;38.45;28.89;100171.38;103685;280;40009;-76
2023/07/16 11:10:26;;;;;;;7.20;4.80;;;;;;;38.62;28.50;100171.88;103692;280;38446;-75
2023/07/16 11:13:05;;;;;;;5.70;4.90;;;;;;;38.80;28.51;100168.04;103740;280;38633;-73
2023/07/16 11:15:50;;;;;;;5.40;4.70;;;;;;;38.93;27.51;100168.81;103543;280;39500;-74
2023/07/16 11:18:29;;;;;;;6.60;5.10;;;;;;;38.96;27.29;100166.61;103612;281;39600;-74
2023/07/16 11:21:05;;;;;;;5.60;4.90;;;;;;;39.06;27.54;100168.73;103684;280;38324;-76
2023/07/16 11:23:40;;;;;;;6.50;4.90;;;;;;;39.11;27.61;100178.10;103695;280;38278;-75
2023/07/16 11:26:17;;;;;;;6.90;5.10;;;;;;;39.03;27.15;100178.37;103709;280;39162;-77
2023/07/16 11:28:55;;;;;;;5.60;5.10;;;;;;;38.97;27.49;100175.81;103706;280;38635;-74
2023/07/16 11:31:42;;;;;;;5.40;4.90;;;;;;;38.97;27.57;100179.77;103720;280;38236;-75
2023/07/16 11:34:21;;;;;;;;;;;;;;;39.10;27.47;100182.30;103723;280;38371;-75
2023/07/16 11:36:57;;;;;;;5.70;5.20;;;;;;;39.24;27.33;100185.55;103522;280;38456;-74
2023/07/16 11:39:37;;;;;;;5.70;5.10;;;;;;;39.30;27.09;100182.59;103660;280;38768;-73
2023/07/16 11:42:12;;;;;;;6.10;4.60;;;;;;;39.42;27.59;100168.23;103650;279;40170;-74
2023/07/16 11:44:49;;;;;;;6.50;5.40;;;;;;;39.51;27.07;100177.34;103665;280;39434;-74
2023/07/16 11:47:23;;;;;;;5.80;5.30;;;;;;;39.47;26.66;100178.28;103677;280;38917;-73
2023/07/16 11:49:57;;;;;;;10.30;5.40;;;;;;;39.47;26.73;100181.83;103677;280;38343;-75
2023/07/16 11:52:32;;;;;;;7.30;4.90;;;;;;;39.38;26.88;100185.65;103654;280;39077;-75
2023/07/16 11:55:08;;;;;;;5.30;4.80;;;;;;;39.16;26.96;100191.70;103647;280;39563;-75
2023/07/16 11:57:42;;;;;;;5.50;4.90;;;;;;;39.03;26.82;100188.55;103667;280;38259;-76
2023/07/16 12:00:18;;;;;;;6.40;5.00;;;;;;;38.95;27.14;100187.83;103598;280;188529;-74
2023/07/16 12:02:52;;;;;;;7.90;4.80;;;;;;;38.72;27.22;100193.08;103642;280;38400;-74